Aeroporto :
LOGIN :

Iscrizione | Disclaimer

   EN    FR    IT 

 










Sommario :    VFR   VFR Marginale   IFR   IFR Intensivo   IFR Molto Intensivo
Visibilità : 
Base nubi : 
>= 8 km
>= 3000ft
5 / 8 km
1000 / 3000 ft
1500m / 5 km
500 / 1000 ft
800 / 1500m
200 / 500 ft
< 800m
< 200 ft
Simboli :   Temporali  Nebbia  Neve Forte  Precipitazioni Forti  Vento > 20 kt
SIGMETs :   Varie  Temporali  Ghiacco  Turbolenza  Onda orograficha  Ceneri Vulcaniche






- Altitudine del aeroporto : 297 ft
- Codice IATA : BBU


LRBS - Bucarest - Baneasa Aurel Vlaicu

ULTIMO METAR :
  • 280030Z 22006KT 9999 FEW006 SCT025 02/01 Q1009 R07/29//95 NOSIG

METARs OBSOLETI :
  • 280000Z 22005KT 9999 FEW005 02/01 Q1009 R07/29//95 NOSIG
  • 272330Z 21003KT 9999 SCT006 BKN036 03/02 Q1009 R07/29//95 NOSIG
  • 272300Z VRB01KT 9000 -RA SCT006 BKN036 03/02 Q1009 R07/29//95 NOSIG
  • 272230Z 27003KT 250V310 9000 -RA SCT005 BKN029 02/02 Q1008 R07/29//95 NOSIG
  • 272200Z 28004KT 9999 -RA BKN008 BKN030 03/02 Q1008 R07/29//95 NOSIG

TAF TAF LRBS
Valido dal 28 a 00 ore il 29 a 00 ore UTC


272300Z 2800/2824 VRB04KT 9999 SCT010 BKN030
BECMG 2800/2802 5000 BR
TEMPO 2802/2805 3000 BR
BECMG 2805/2807 CAVOK
BECMG 2816/2818 5000 -RA BKN015 OVC035



MetMap, La meteo Aeronautica in un colpo d'occhio ! - Copyright ORBIFLY Dicembre 2007 - Disclaimer

ORBIFLY MET'MAP TEAM :

Programmazione e sviluppo : Alexandra Zaïnal
Concezione : Baudouin d'Aumeries
Aiuto per la programmazione : Marc-Olivier Méhu
Supporto tecnico e logistico : Manuel Goepfert
Aiuto per la traduzione : Arnaldo La Scala

Contatto : metmap@orbifly.com




FONTI E CREDITI :

   NOAA